Thursday, August 25, 2016
18:32 UTC
  |  Log In   |  Register Free
Airport Search:

Lincoln Airport
(KLNK)

FAA data valid effective Jul 21 2016 - Sep 15 2016 (unless otherwise noted).

 
 
 
 
 
 
 
 
 
 
 
 
 
 
Current Aviation Weather for KLNK

Weather Summary


The most recent METAR observation for LNK was updated at: 12:54 UTC
METAR for LNK is not available. Closest METAR is for
METAR

METAR KLNK 251754Z 36006KT 10SM BKN120 23/15 A3016 RMK AO2 SLP206 60001 T02280150 10228 20144 50007

METAR KLNK 251654Z 36009KT 10SM CLR 20/16 A3016 RMK AO2 SLP208 T02000156

METAR KLNK 251554Z 33005KT 10SM CLR 18/16 A3016 RMK AO2 RAE00 SLP207 P0000 T01830161

METAR KAHQ 251815Z 35007KT 10SM CLR 22/16 A3016 RMK AO2 T02220157

METAR KBIE 251815Z 01003KT 10SM CLR 21/15 A3015 RMK AO2 T02110154

TAF for LNK is not available.
TAF

KLNK - TAF KLNK 251728Z 2518/2618 02006KT P6SM SCT150

KLNK - FM261600 07005KT P6SM SCT025 BKN100 =

GlobalAir.com is loading additional information.
 Current Weather at LNK
68.0 F° (20.0 C°)

North winds at 10.4 mph
Pressure:
30.16 in
Humidity:
76%
Wind:
North at 10.4 mph
Dew Point:
60.1 F° (15.6 C°)
Visibility:
10.00 mi
LNK NOAA Radar




Find All Airport Services Find A Hotel Find A Rental Car Find A Golf Course Find A Restaurant $100 Hamburger



Airport Weather Forecast for KLNK

Translated METAR for KLNK (1754 UTC)
METAR:
KLNK 251754Z Lincoln, Lincoln, NE (KLNK). Aug 25, 1754Z. Wind from 360° at 6 knots, 10 statute miles visibility, Ceiling is Broken at 12,000 feet, Temperature 23°C, Dewpoint 15°C, Altimeter is 30.16. Remarks: automated station with precipitation discriminator sea level pressure 1020.6 hectopascals 0.01 inches precipitation (water equivalent) past 6 hours hourly temp 22.8°C dewpoint 15.0°C 6-hour max temp 22.8°C 6-hour min temp 14.4°C 3-hour atmospheric pressure increasing, then decreasing (0.7 hectopascal increase)
Conditions at:
KLNK (Lincoln, NE) observed 1754 UTC 25 August 2016
Temperature:
68.0 F° (20.0 C°)
Dewpoint:
not reported - refer to area weather report
Pressure:
30.16 Hg
Winds:
not reported
Visibility:
10.00
Ceiling:
at least 12,000 feet AGL
Clouds:
not reported - refer to area weather report
Remarks:

Translated TAF for TAF for LNK is not available. Refer to local area forecast.
FBO's on the Field
FBO Company Facility Photos Services Transportation Aviation Fuel Prices: Prices include tax
Catering Weather Repair Courtesy Rental Type 100LL JetA JetA+ MOGAS 8087
 
Duncan Aviation

This FBO has not yet been rated
FS:Avfuel
Last Updated: Aug-23
Login to update fuel prices
SS:
Contact Duncan AviationMore FBO Information
 
Silverhawk Aviation

This FBO has not yet been rated
FS:Phillips 66
Last Updated: Aug-23
Login to update fuel prices
SS:
Contact Silverhawk AviationMore FBO Information
 
Add another FBO Facility Photos Catering Weather Repair Courtesy Rental Type 100LL JetA JetA+ MOGAS 8087
Services Transportation Aviation Fuel Prices: Prices include tax


model-print
model-print
model-print
model-print